Time;durP1;ratioP1;P1;durP2;ratioP2;P2;SDS_P1;SDS_P2;PMS_P1;PMS_P2;Temp;Humidity;BMP_temperature;BMP_pressure;BME280_temperature;BME280_humidity;BME280_pressure;Samples;Min_cycle;Max_cycle;Signal;HPM_P1;HPM_P2
2022/09/06 00:02:22;;;;;;;5.72;3.05;;;;;;;;;;4940520;29;20060;-77
2022/09/06 00:05:08;;;;;;;4.22;2.95;;;;;;;;;;4947713;29;20055;-78
2022/09/06 00:07:57;;;;;;;6.47;2.90;;;;;;;;;;4943607;29;20044;-77
2022/09/06 00:10:43;;;;;;;6.30;3.00;;;;;;;;;;4940567;29;20043;-77
2022/09/06 00:13:28;;;;;;;6.97;3.17;;;;;;;;;;4940648;29;20482;-78
2022/09/06 00:16:17;;;;;;;4.47;3.10;;;;;;;;;;4946569;29;20390;-77
2022/09/06 00:19:02;;;;;;;4.30;3.20;;;;;;;;;;4946325;29;20040;-77
2022/09/06 00:21:48;;;;;;;11.63;3.03;;;;;;;;;;4940960;29;20040;-77
2022/09/06 00:24:33;;;;;;;7.85;3.15;;;;;;;;;;4946550;29;20051;-77
2022/09/06 00:27:18;;;;;;;3.58;2.78;;;;;;;;;;4926244;29;20055;-77
2022/09/06 00:30:04;;;;;;;4.60;2.80;;;;;;;;;;4939930;29;20064;-77
2022/09/06 00:32:50;;;;;;;7.63;3.00;;;;;;;;;;4940102;29;20051;-77
2022/09/06 00:35:34;;;;;;;5.78;3.25;;;;;;;;;;4939819;29;20044;-77
2022/09/06 00:38:19;;;;;;;7.65;3.63;;;;;;;;;;4940470;29;20397;-77
2022/09/06 00:41:07;;;;;;;4.85;3.10;;;;;;;;;;4946343;29;20048;-77
2022/09/06 00:43:53;;;;;;;6.13;3.30;;;;;;;;;;4946362;29;20096;-77
2022/09/06 00:46:44;;;;;;;5.70;3.50;;;;;;;;;;4940268;29;20048;-77
2022/09/06 00:49:33;;;;;;;5.22;3.50;;;;;;;;;;4939809;29;20047;-77
2022/09/06 00:52:19;;;;;;;6.00;3.72;;;;;;;;;;4945611;29;20056;-78
2022/09/06 00:55:06;;;;;;;4.82;4.00;;;;;;;;;;4945998;29;20051;-77
2022/09/06 00:57:52;;;;;;;5.97;3.58;;;;;;;;;;4944968;29;20482;-78
2022/09/06 01:00:38;;;;;;;6.10;3.50;;;;;;;;;;4947325;29;20486;-78
2022/09/06 01:03:24;;;;;;;5.75;3.38;;;;;;;;;;4951552;29;20119;-77
2022/09/06 01:06:20;;;;;;;9.23;4.20;;;;;;;;;;4945010;29;20051;-78
2022/09/06 01:09:30;;;;;;;5.72;4.10;;;;;;;;;;4945881;29;20047;-78
2022/09/06 01:12:27;;;;;;;6.90;4.10;;;;;;;;;;4945652;29;20040;-77
2022/09/06 01:15:34;;;;;;;6.55;4.30;;;;;;;;;;4945437;29;20056;-77
2022/09/06 01:18:49;;;;;;;9.57;3.65;;;;;;;;;;4947323;29;20043;-77
2022/09/06 01:22:10;;;;;;;6.07;3.90;;;;;;;;;;4952075;29;20047;-78
2022/09/06 01:25:17;;;;;;;6.03;4.03;;;;;;;;;;4952835;29;20052;-77
2022/09/06 01:28:09;;;;;;;5.75;3.83;;;;;;;;;;4950916;29;20052;-78
2022/09/06 01:31:13;;;;;;;13.23;4.20;;;;;;;;;;4944568;29;20402;-78
2022/09/06 01:34:02;;;;;;;8.25;4.65;;;;;;;;;;4946877;29;20059;-77
2022/09/06 01:36:51;;;;;;;7.35;4.07;;;;;;;;;;4946032;29;20039;-77
2022/09/06 01:39:39;;;;;;;8.02;4.00;;;;;;;;;;4947291;29;20039;-77
2022/09/06 01:42:29;;;;;;;8.88;4.20;;;;;;;;;;4945609;29;20048;-77
2022/09/06 01:45:18;;;;;;;6.05;4.20;;;;;;;;;;4950240;29;20044;-77
2022/09/06 01:48:30;;;;;;;8.00;4.30;;;;;;;;;;4944727;29;20051;-77
2022/09/06 01:51:41;;;;;;;8.93;4.10;;;;;;;;;;4947860;29;20048;-78
2022/09/06 01:54:45;;;;;;;6.53;4.22;;;;;;;;;;4952133;29;20048;-77
2022/09/06 01:57:51;;;;;;;7.10;3.85;;;;;;;;;;4955120;29;20043;-77
2022/09/06 02:00:51;;;;;;;6.85;3.90;;;;;;;;;;4937103;29;20040;-77
2022/09/06 02:04:04;;;;;;;6.20;3.95;;;;;;;;;;4940610;29;20032;-78
2022/09/06 02:06:57;;;;;;;6.80;4.00;;;;;;;;;;4944831;29;20047;-80
2022/09/06 02:09:45;;;;;;;5.00;3.67;;;;;;;;;;4938325;29;20048;-77
2022/09/06 02:12:32;;;;;;;6.47;3.60;;;;;;;;;;4930643;29;20394;-77
2022/09/06 02:15:33;;;;;;;8.00;4.25;;;;;;;;;;4938198;29;20092;-78
2022/09/06 02:18:26;;;;;;;4.43;3.80;;;;;;;;;;4944850;29;20048;-78
2022/09/06 02:21:15;;;;;;;4.25;3.60;;;;;;;;;;4938230;29;20051;-76
2022/09/06 02:24:08;;;;;;;6.03;3.75;;;;;;;;;;4938271;29;20039;-76
2022/09/06 02:26:55;;;;;;;8.75;3.80;;;;;;;;;;4938699;29;20055;-78
2022/09/06 02:29:41;;;;;;;5.25;3.58;;;;;;;;;;4938004;29;20052;-76
2022/09/06 02:32:29;;;;;;;7.65;3.88;;;;;;;;;;4938190;29;20052;-77
2022/09/06 02:35:15;;;;;;;9.48;4.00;;;;;;;;;;4938317;29;20047;-77
2022/09/06 02:38:01;;;;;;;8.32;3.90;;;;;;;;;;4944991;29;20110;-76
2022/09/06 02:40:47;;;;;;;5.22;3.65;;;;;;;;;;4938599;29;20425;-76
2022/09/06 02:43:32;;;;;;;7.53;3.80;;;;;;;;;;4924002;29;20052;-76
2022/09/06 02:46:17;;;;;;;8.40;3.45;;;;;;;;;;4938013;29;20052;-77
2022/09/06 02:49:03;;;;;;;9.68;3.60;;;;;;;;;;4937947;29;20406;-76
2022/09/06 02:51:49;;;;;;;5.78;3.83;;;;;;;;;;4944005;29;20044;-76
2022/09/06 02:54:35;;;;;;;10.73;4.00;;;;;;;;;;4938038;29;20051;-76
2022/09/06 02:57:21;;;;;;;9.57;4.10;;;;;;;;;;4937548;29;20052;-76
2022/09/06 03:00:08;;;;;;;6.55;3.67;;;;;;;;;;4943812;29;20047;-76
2022/09/06 03:02:53;;;;;;;6.63;3.95;;;;;;;;;;4937554;29;20039;-76
2022/09/06 03:05:38;;;;;;;6.00;3.80;;;;;;;;;;4942999;29;20035;-76
2022/09/06 03:08:32;;;;;;;5.47;3.50;;;;;;;;;;4937571;29;20044;-76
2022/09/06 03:11:16;;;;;;;7.68;3.80;;;;;;;;;;4937589;29;20048;-77
2022/09/06 03:14:02;;;;;;;5.38;3.70;;;;;;;;;;4943764;29;20048;-77
2022/09/06 03:16:48;;;;;;;8.88;4.03;;;;;;;;;;4937225;29;20055;-76
2022/09/06 03:19:33;;;;;;;7.90;3.65;;;;;;;;;;4936954;29;20044;-77
2022/09/06 03:22:19;;;;;;;7.60;4.00;;;;;;;;;;4938153;29;20055;-76
2022/09/06 03:25:06;;;;;;;8.00;3.88;;;;;;;;;;4937180;29;20059;-77
2022/09/06 03:27:51;;;;;;;4.88;3.60;;;;;;;;;;4943353;29;20051;-77
2022/09/06 03:30:38;;;;;;;4.60;3.72;;;;;;;;;;4937041;29;20482;-77
2022/09/06 03:33:23;;;;;;;10.07;4.07;;;;;;;;;;4936901;29;20453;-77
2022/09/06 03:36:09;;;;;;;8.35;4.00;;;;;;;;;;4937107;29;20047;-77
2022/09/06 03:38:55;;;;;;;9.02;4.20;;;;;;;;;;4936632;29;20048;-79
2022/09/06 03:41:41;;;;;;;9.75;3.80;;;;;;;;;;4936419;29;20047;-79
2022/09/06 03:44:27;;;;;;;8.02;4.10;;;;;;;;;;4943272;29;20052;-76
2022/09/06 03:47:12;;;;;;;6.80;4.28;;;;;;;;;;4943029;29;20398;-76
2022/09/06 03:49:58;;;;;;;9.50;4.40;;;;;;;;;;4936825;29;20402;-78
2022/09/06 03:52:43;;;;;;;10.10;4.85;;;;;;;;;;4943022;29;20055;-76
2022/09/06 03:55:29;;;;;;;7.60;5.10;;;;;;;;;;4943179;29;20052;-77
2022/09/06 03:58:16;;;;;;;10.07;4.60;;;;;;;;;;4936117;29;20433;-76
2022/09/06 04:01:04;;;;;;;6.45;4.22;;;;;;;;;;4941567;29;20047;-76
2022/09/06 04:03:49;;;;;;;7.80;4.25;;;;;;;;;;4935926;29;20052;-77
2022/09/06 04:06:34;;;;;;;6.82;4.28;;;;;;;;;;4936944;29;20048;-77
2022/09/06 04:09:20;;;;;;;7.78;4.25;;;;;;;;;;4936330;29;20036;-76
2022/09/06 04:12:05;;;;;;;6.32;4.50;;;;;;;;;;4936010;29;20052;-76
2022/09/06 04:14:51;;;;;;;9.15;4.55;;;;;;;;;;4936062;29;20047;-76
2022/09/06 04:17:37;;;;;;;7.70;4.55;;;;;;;;;;4936093;29;20052;-76
2022/09/06 04:20:22;;;;;;;7.65;4.68;;;;;;;;;;4942530;29;20044;-76
2022/09/06 04:23:08;;;;;;;9.82;4.72;;;;;;;;;;4942395;29;20052;-76
2022/09/06 04:25:55;;;;;;;8.25;5.03;;;;;;;;;;4942459;29;20047;-75
2022/09/06 04:28:41;;;;;;;7.75;5.40;;;;;;;;;;4935913;29;20059;-77
2022/09/06 04:31:26;;;;;;;7.32;4.90;;;;;;;;;;4935874;29;20494;-76
2022/09/06 04:34:12;;;;;;;10.55;5.05;;;;;;;;;;4935527;29;20047;-76
2022/09/06 04:36:57;;;;;;;7.68;5.50;;;;;;;;;;4935687;29;20052;-75
2022/09/06 04:39:43;;;;;;;9.07;5.43;;;;;;;;;;4935797;29;20052;-76
2022/09/06 04:42:29;;;;;;;11.00;5.40;;;;;;;;;;4944893;29;20055;-76
2022/09/06 04:45:14;;;;;;;7.28;5.22;;;;;;;;;;4939874;29;20043;-77
2022/09/06 04:48:02;;;;;;;11.13;5.85;;;;;;;;;;4945447;29;20048;-77
2022/09/06 04:50:47;;;;;;;7.45;4.90;;;;;;;;;;4939389;29;20064;-77
2022/09/06 04:53:33;;;;;;;6.63;4.97;;;;;;;;;;4939068;29;20052;-79
2022/09/06 04:56:21;;;;;;;10.95;5.40;;;;;;;;;;4939412;29;20048;-77
2022/09/06 04:59:06;;;;;;;9.38;5.40;;;;;;;;;;4945630;29;20047;-76
2022/09/06 05:01:52;;;;;;;12.45;5.65;;;;;;;;;;4945174;29;20051;-77
2022/09/06 05:04:37;;;;;;;8.70;5.65;;;;;;;;;;4924753;29;20056;-76
2022/09/06 05:07:23;;;;;;;9.02;6.50;;;;;;;;;;4942495;29;20051;-77
2022/09/06 05:10:09;;;;;;;8.40;6.20;;;;;;;;;;4946280;29;20052;-77
2022/09/06 05:12:54;;;;;;;12.38;6.53;;;;;;;;;;4944856;29;20055;-76
2022/09/06 05:15:40;;;;;;;10.25;6.20;;;;;;;;;;4937996;29;20039;-77
2022/09/06 05:18:25;;;;;;;18.88;6.90;;;;;;;;;;4940555;29;20055;-76
2022/09/06 05:21:11;;;;;;;15.73;6.78;;;;;;;;;;4938338;29;20047;-77
2022/09/06 05:23:57;;;;;;;16.02;6.63;;;;;;;;;;4938386;29;20052;-76
2022/09/06 05:26:42;;;;;;;10.80;7.15;;;;;;;;;;4943077;29;20051;-76
2022/09/06 05:29:28;;;;;;;8.35;5.30;;;;;;;;;;4943363;29;20059;-76
2022/09/06 05:32:13;;;;;;;10.57;6.60;;;;;;;;;;4945035;29;20048;-76
2022/09/06 05:34:59;;;;;;;15.73;7.28;;;;;;;;;;4938712;29;20402;-76
2022/09/06 05:37:46;;;;;;;8.73;6.18;;;;;;;;;;4938363;29;20056;-76
2022/09/06 05:40:32;;;;;;;9.32;6.32;;;;;;;;;;4936674;29;20052;-76
2022/09/06 05:43:17;;;;;;;11.98;7.65;;;;;;;;;;4937521;29;20055;-76
2022/09/06 05:46:02;;;;;;;13.75;8.70;;;;;;;;;;4938578;29;20051;-76
2022/09/06 05:48:58;;;;;;;10.85;7.25;;;;;;;;;;4938386;29;20043;-76
2022/09/06 05:51:48;;;;;;;11.88;7.78;;;;;;;;;;4937926;29;20047;-77
2022/09/06 05:54:34;;;;;;;16.75;7.75;;;;;;;;;;4937632;29;20051;-76
2022/09/06 05:57:20;;;;;;;14.25;8.07;;;;;;;;;;4937868;29;20048;-76
2022/09/06 06:00:06;;;;;;;11.35;7.97;;;;;;;;;;4938131;29;20048;-76
2022/09/06 06:02:56;;;;;;;15.65;8.77;;;;;;;;;;4938036;29;20060;-76
2022/09/06 06:05:46;;;;;;;17.00;9.25;;;;;;;;;;4937969;29;20047;-76
2022/09/06 06:08:31;;;;;;;14.85;9.25;;;;;;;;;;4939397;29;20040;-76
2022/09/06 06:11:17;;;;;;;13.13;8.77;;;;;;;;;;4937957;29;20048;-76
2022/09/06 06:14:03;;;;;;;14.00;9.43;;;;;;;;;;4944356;29;20051;-76
2022/09/06 06:16:49;;;;;;;16.17;8.98;;;;;;;;;;4944473;29;20043;-76
2022/09/06 06:19:35;;;;;;;13.07;9.25;;;;;;;;;;4944162;29;20044;-76
2022/09/06 06:22:20;;;;;;;10.30;8.52;;;;;;;;;;4943983;29;20047;-78
2022/09/06 06:25:10;;;;;;;14.02;9.10;;;;;;;;;;4937872;29;20047;-78
2022/09/06 06:27:56;;;;;;;15.43;8.25;;;;;;;;;;4943965;29;20039;-78
2022/09/06 06:30:41;;;;;;;13.20;7.75;;;;;;;;;;4937962;29;20047;-77
2022/09/06 06:33:27;;;;;;;13.30;7.72;;;;;;;;;;4944074;29;20052;-77
2022/09/06 06:36:13;;;;;;;13.63;7.15;;;;;;;;;;4937433;29;20043;-77
2022/09/06 06:39:00;;;;;;;14.80;8.20;;;;;;;;;;4937866;29;20465;-77
2022/09/06 06:41:46;;;;;;;12.90;7.80;;;;;;;;;;4943415;29;20047;-78
2022/09/06 06:44:54;;;;;;;13.63;8.05;;;;;;;;;;4943714;29;20406;-78
2022/09/06 06:47:39;;;;;;;13.63;8.70;;;;;;;;;;4944143;29;20394;-78
2022/09/06 06:50:25;;;;;;;13.75;8.13;;;;;;;;;;4937438;29;20051;-77
2022/09/06 06:53:10;;;;;;;11.30;7.78;;;;;;;;;;4937606;29;20056;-77
2022/09/06 06:55:56;;;;;;;14.68;7.95;;;;;;;;;;4937071;29;20051;-78
2022/09/06 06:58:43;;;;;;;10.05;7.07;;;;;;;;;;4943853;29;20036;-78
2022/09/06 07:01:30;;;;;;;12.80;7.68;;;;;;;;;;4937038;29;20035;-79
2022/09/06 07:04:15;;;;;;;11.73;7.43;;;;;;;;;;4923057;29;20493;-76
2022/09/06 07:07:01;;;;;;;9.95;7.22;;;;;;;;;;4937055;29;20043;-79
2022/09/06 07:09:47;;;;;;;12.02;8.13;;;;;;;;;;4936983;29;20043;-78
2022/09/06 07:12:32;;;;;;;15.73;8.27;;;;;;;;;;4936837;29;20044;-80
2022/09/06 07:15:18;;;;;;;13.10;8.45;;;;;;;;;;4940815;29;20059;-76
2022/09/06 07:18:03;;;;;;;13.85;7.85;;;;;;;;;;4944603;29;20040;-76
2022/09/06 07:20:50;;;;;;;11.88;7.85;;;;;;;;;;4943277;29;20498;-76
2022/09/06 07:23:36;;;;;;;11.50;7.40;;;;;;;;;;4936730;29;20056;-77
2022/09/06 07:26:27;;;;;;;15.73;8.38;;;;;;;;;;4943475;29;20378;-76
2022/09/06 07:29:12;;;;;;;13.13;8.07;;;;;;;;;;4936463;29;20043;-75
2022/09/06 07:31:58;;;;;;;11.68;7.35;;;;;;;;;;4942734;29;20043;-75
2022/09/06 07:34:43;;;;;;;13.82;7.75;;;;;;;;;;4928932;29;20055;-75
2022/09/06 07:37:28;;;;;;;10.32;6.43;;;;;;;;;;4936590;29;20048;-75
2022/09/06 07:40:14;;;;;;;9.40;6.75;;;;;;;;;;4943023;29;20494;-75
2022/09/06 07:43:00;;;;;;;8.50;6.78;;;;;;;;;;4937293;29;20055;-77
2022/09/06 07:45:47;;;;;;;15.23;8.05;;;;;;;;;;4936342;29;20052;-76
2022/09/06 07:48:34;;;;;;;10.65;7.80;;;;;;;;;;4942976;29;20052;-75
2022/09/06 07:51:21;;;;;;;10.20;6.93;;;;;;;;;;4936218;29;20044;-73
2022/09/06 07:54:06;;;;;;;10.13;6.50;;;;;;;;;;4938879;29;20048;-74
2022/09/06 07:56:52;;;;;;;12.57;6.80;;;;;;;;;;4936321;29;20047;-74
2022/09/06 07:59:38;;;;;;;13.63;6.80;;;;;;;;;;4942715;29;20515;-77
2022/09/06 08:02:23;;;;;;;14.20;6.60;;;;;;;;;;4936094;29;20051;-75
2022/09/06 08:05:09;;;;;;;10.43;6.57;;;;;;;;;;4936379;29;20048;-78
2022/09/06 08:07:54;;;;;;;9.10;6.72;;;;;;;;;;4939420;29;20043;-74
2022/09/06 08:10:39;;;;;;;9.60;6.72;;;;;;;;;;4936541;29;20044;-75
2022/09/06 08:13:25;;;;;;;17.02;6.82;;;;;;;;;;4936250;29;20073;-77
2022/09/06 08:16:11;;;;;;;12.60;6.65;;;;;;;;;;4924123;29;20047;-74
2022/09/06 08:18:58;;;;;;;9.35;6.25;;;;;;;;;;4946193;29;20470;-74
2022/09/06 08:21:44;;;;;;;9.55;6.60;;;;;;;;;;4946210;29;20052;-76
2022/09/06 08:24:30;;;;;;;8.00;5.88;;;;;;;;;;4939911;29;20040;-75
2022/09/06 08:27:15;;;;;;;10.13;6.45;;;;;;;;;;4946293;29;20245;-77
2022/09/06 08:30:00;;;;;;;10.80;6.45;;;;;;;;;;4946112;29;20047;-76
2022/09/06 08:32:46;;;;;;;14.18;6.55;;;;;;;;;;4939720;29;20051;-74
2022/09/06 08:35:32;;;;;;;10.82;6.20;;;;;;;;;;4946163;29;20043;-76
2022/09/06 08:38:17;;;;;;;12.63;6.90;;;;;;;;;;4945969;29;20429;-75
2022/09/06 08:41:16;;;;;;;10.73;6.68;;;;;;;;;;4939119;29;20048;-76
2022/09/06 08:44:28;;;;;;;10.60;6.72;;;;;;;;;;4931555;29;20051;-76
2022/09/06 08:47:17;;;;;;;10.55;6.68;;;;;;;;;;4945940;29;20043;-74
2022/09/06 08:50:05;;;;;;;9.43;6.70;;;;;;;;;;4939619;29;20043;-74
2022/09/06 08:53:20;;;;;;;7.88;6.43;;;;;;;;;;4939675;29;20044;-76
2022/09/06 08:56:16;;;;;;;7.60;6.13;;;;;;;;;;4936802;29;20085;-75
2022/09/06 08:59:12;;;;;;;10.18;6.60;;;;;;;;;;4939416;29;20048;-75
2022/09/06 09:02:19;;;;;;;9.93;6.53;;;;;;;;;;4945327;29;20040;-74
2022/09/06 09:05:05;;;;;;;7.53;5.93;;;;;;;;;;4938980;29;20413;-74
2022/09/06 09:07:57;;;;;;;11.07;5.13;;;;;;;;;;4942018;29;20485;-76
2022/09/06 09:11:02;;;;;;;9.30;4.60;;;;;;;;;;4939111;29;20055;-74
2022/09/06 09:13:55;;;;;;;;;;;;;;;;;;4939306;29;20398;-74
2022/09/06 09:16:40;;;;;;;8.57;5.00;;;;;;;;;;4945147;29;19918;-75
2022/09/06 09:19:25;;;;;;;7.32;5.20;;;;;;;;;;4938764;29;20047;-74
2022/09/06 09:22:15;;;;;;;6.07;4.53;;;;;;;;;;4938534;29;20489;-75
2022/09/06 09:25:02;;;;;;;7.63;5.22;;;;;;;;;;4945223;29;20052;-74
2022/09/06 09:27:56;;;;;;;7.47;5.50;;;;;;;;;;4944081;29;20044;-75
2022/09/06 09:30:51;;;;;;;6.20;4.70;;;;;;;;;;4938503;29;20051;-76
2022/09/06 09:33:40;;;;;;;5.25;4.50;;;;;;;;;;4938515;29;20498;-74
2022/09/06 09:36:25;;;;;;;4.60;3.95;;;;;;;;;;4944775;29;20044;-75
2022/09/06 09:39:11;;;;;;;4.97;3.75;;;;;;;;;;4939714;29;20047;-75
2022/09/06 09:41:57;;;;;;;5.25;4.28;;;;;;;;;;4944846;29;20043;-76
2022/09/06 09:44:43;;;;;;;5.22;2.95;;;;;;;;;;4944534;29;20394;-74
2022/09/06 09:47:32;;;;;;;4.15;3.10;;;;;;;;;;4938649;29;20051;-76
2022/09/06 09:50:25;;;;;;;4.32;3.15;;;;;;;;;;4938196;29;20059;-75
2022/09/06 09:53:14;;;;;;;6.60;3.33;;;;;;;;;;4945171;29;20044;-77
2022/09/06 09:55:59;;;;;;;6.15;3.47;;;;;;;;;;4938318;29;20043;-75
2022/09/06 09:58:44;;;;;;;3.95;3.22;;;;;;;;;;4930213;29;20402;-77
2022/09/06 10:01:34;;;;;;;4.13;3.50;;;;;;;;;;4944424;29;20401;-75
2022/09/06 10:04:36;;;;;;;4.25;3.30;;;;;;;;;;4943947;29;20477;-76
2022/09/06 10:07:24;;;;;;;5.90;3.58;;;;;;;;;;4937764;29;20048;-75
2022/09/06 10:10:14;;;;;;;4.45;3.60;;;;;;;;;;4944159;29;20048;-75
2022/09/06 10:13:19;;;;;;;6.22;3.47;;;;;;;;;;4937717;29;20047;-75
2022/09/06 10:16:04;;;;;;;5.85;3.35;;;;;;;;;;4944476;29;20043;-75
2022/09/06 10:18:51;;;;;;;4.97;3.75;;;;;;;;;;4944097;29;20405;-75
2022/09/06 10:21:37;;;;;;;4.88;3.70;;;;;;;;;;4937367;29;20056;-74
2022/09/06 10:24:52;;;;;;;3.80;3.38;;;;;;;;;;4943855;29;20074;-75
2022/09/06 10:27:49;;;;;;;4.30;3.63;;;;;;;;;;4943923;29;20064;-75
2022/09/06 10:30:42;;;;;;;6.85;3.67;;;;;;;;;;4944012;29;20414;-74
2022/09/06 10:33:46;;;;;;;3.88;3.22;;;;;;;;;;4943701;29;20445;-75
2022/09/06 10:36:36;;;;;;;3.90;3.22;;;;;;;;;;4943956;29;20051;-75
2022/09/06 10:39:49;;;;;;;4.57;3.05;;;;;;;;;;4936707;29;20044;-76
2022/09/06 10:42:48;;;;;;;3.70;3.17;;;;;;;;;;4937041;29;20347;-75
2022/09/06 10:45:55;;;;;;;3.92;3.22;;;;;;;;;;4936823;29;20390;-75
2022/09/06 10:48:44;;;;;;;4.10;3.20;;;;;;;;;;4943445;29;20040;-75
2022/09/06 10:51:36;;;;;;;4.35;3.47;;;;;;;;;;4937417;29;20390;-75
2022/09/06 10:54:23;;;;;;;4.13;3.47;;;;;;;;;;4943366;29;20039;-75
2022/09/06 10:57:24;;;;;;;4.95;3.70;;;;;;;;;;4944112;29;20489;-75
2022/09/06 11:00:14;;;;;;;3.95;3.55;;;;;;;;;;4928767;29;20047;-75
2022/09/06 11:03:17;;;;;;;5.95;3.58;;;;;;;;;;4937323;29;20389;-76
2022/09/06 11:06:07;;;;;;;6.43;3.30;;;;;;;;;;4936830;29;20048;-75
2022/09/06 11:08:58;;;;;;;3.47;3.15;;;;;;;;;;4936353;29;20052;-75
2022/09/06 11:12:07;;;;;;;3.50;2.80;;;;;;;;;;4937560;29;20059;-75
2022/09/06 11:14:52;;;;;;;3.10;2.78;;;;;;;;;;4936943;29;20056;-75
2022/09/06 11:17:59;;;;;;;4.28;3.20;;;;;;;;;;4942997;29;20048;-75
2022/09/06 11:20:57;;;;;;;3.30;2.83;;;;;;;;;;4936939;29;20048;-75
2022/09/06 11:23:51;;;;;;;3.88;3.20;;;;;;;;;;4943071;29;20036;-75
2022/09/06 11:26:50;;;;;;;3.70;3.20;;;;;;;;;;4937095;29;20044;-76
2022/09/06 11:29:40;;;;;;;3.13;2.83;;;;;;;;;;4943256;29;20039;-76
2022/09/06 11:32:48;;;;;;;4.72;3.10;;;;;;;;;;4943495;29;20051;-76
2022/09/06 11:35:35;;;;;;;4.93;3.00;;;;;;;;;;4942828;29;20052;-77
2022/09/06 11:38:25;;;;;;;5.18;3.05;;;;;;;;;;4936636;29;20043;-77
2022/09/06 11:41:16;;;;;;;4.82;2.97;;;;;;;;;;4943191;29;20047;-76
2022/09/06 11:44:02;;;;;;;4.30;2.97;;;;;;;;;;4936476;29;20055;-76
2022/09/06 11:46:48;;;;;;;3.53;2.55;;;;;;;;;;4942507;29;20067;-76
2022/09/06 11:49:36;;;;;;;2.70;2.50;;;;;;;;;;4936160;29;20044;-77
2022/09/06 11:52:58;;;;;;;2.92;2.63;;;;;;;;;;4946558;29;20486;-76
2022/09/06 11:55:49;;;;;;;3.20;2.38;;;;;;;;;;4939520;29;20055;-76
2022/09/06 11:58:40;;;;;;;4.53;3.10;;;;;;;;;;4946533;29;20043;-76
2022/09/06 12:01:26;;;;;;;3.88;2.90;;;;;;;;;;4940236;29;20409;-76
2022/09/06 12:04:11;;;;;;;4.20;2.50;;;;;;;;;;4940124;29;20047;-76
2022/09/06 12:07:09;;;;;;;2.60;2.40;;;;;;;;;;4945872;29;20521;-76
2022/09/06 12:09:54;;;;;;;5.07;2.47;;;;;;;;;;4946255;29;20043;-76
2022/09/06 12:12:44;;;;;;;2.55;2.35;;;;;;;;;;4940268;29;20044;-77
2022/09/06 12:15:53;;;;;;;3.08;2.78;;;;;;;;;;4947277;29;20469;-76
2022/09/06 12:18:41;;;;;;;4.07;2.72;;;;;;;;;;4946959;29;20044;-77
2022/09/06 12:21:40;;;;;;;5.70;3.08;;;;;;;;;;4946316;29;20569;-76
2022/09/06 12:24:34;;;;;;;5.85;3.00;;;;;;;;;;4939774;29;20044;-76
2022/09/06 12:27:49;;;;;;;3.95;3.08;;;;;;;;;;4946520;29;20064;-78
2022/09/06 12:30:35;;;;;;;4.93;2.58;;;;;;;;;;4946836;29;20044;-77
2022/09/06 12:33:25;;;;;;;3.00;2.70;;;;;;;;;;4938202;29;20052;-77
2022/09/06 12:36:20;;;;;;;3.13;2.63;;;;;;;;;;4937593;29;20039;-75
2022/09/06 12:39:13;;;;;;;5.05;2.88;;;;;;;;;;4938502;29;20051;-75
2022/09/06 12:42:04;;;;;;;4.97;3.17;;;;;;;;;;4944719;29;20039;-75
2022/09/06 12:44:52;;;;;;;3.22;2.60;;;;;;;;;;4939103;29;20047;-76
2022/09/06 12:47:41;;;;;;;3.92;2.92;;;;;;;;;;4939737;29;20043;-75
2022/09/06 12:50:27;;;;;;;4.20;2.97;;;;;;;;;;4939467;29;20051;-76
2022/09/06 12:53:23;;;;;;;2.95;2.65;;;;;;;;;;4939575;29;20049;-77
2022/09/06 12:56:13;;;;;;;3.25;2.95;;;;;;;;;;4939382;29;20051;-76
2022/09/06 12:59:22;;;;;;;3.50;2.80;;;;;;;;;;4939190;29;20048;-77
2022/09/06 13:02:12;;;;;;;2.92;2.63;;;;;;;;;;4945490;29;20047;-76
2022/09/06 13:05:07;;;;;;;5.72;2.72;;;;;;;;;;4945759;29;20051;-77
2022/09/06 13:07:59;;;;;;;3.55;2.63;;;;;;;;;;4939953;29;20063;-77
2022/09/06 13:10:46;;;;;;;3.97;3.08;;;;;;;;;;4945384;29;20039;-76
2022/09/06 13:13:31;;;;;;;4.85;3.10;;;;;;;;;;4945177;29;20051;-77
2022/09/06 13:16:31;;;;;;;4.40;3.10;;;;;;;;;;4939398;29;20051;-77
2022/09/06 13:19:30;;;;;;;3.75;2.83;;;;;;;;;;4938952;29;20056;-77
2022/09/06 13:22:45;;;;;;;3.95;3.00;;;;;;;;;;4938980;29;20048;-76
2022/09/06 13:25:31;;;;;;;9.15;4.13;;;;;;;;;;4945348;29;20055;-76
2022/09/06 13:28:31;;;;;;;6.50;3.88;;;;;;;;;;4939114;29;20052;-76
2022/09/06 13:31:16;;;;;;;5.70;3.25;;;;;;;;;;4939364;29;20047;-77
2022/09/06 13:34:02;;;;;;;3.60;2.97;;;;;;;;;;4938923;29;20047;-77
2022/09/06 13:36:51;;;;;;;4.72;3.35;;;;;;;;;;4945017;29;20498;-78
2022/09/06 13:39:39;;;;;;;3.25;2.83;;;;;;;;;;4938794;29;20047;-77
2022/09/06 13:42:31;;;;;;;3.65;2.95;;;;;;;;;;4944826;29;20055;-77
2022/09/06 13:45:26;;;;;;;7.15;3.10;;;;;;;;;;4944860;29;20043;-77
2022/09/06 13:48:11;;;;;;;6.10;3.20;;;;;;;;;;4944798;29;20047;-77
2022/09/06 13:50:57;;;;;;;3.50;3.20;;;;;;;;;;4944704;29;20485;-77
2022/09/06 13:53:42;;;;;;;6.13;2.85;;;;;;;;;;4938239;29;20040;-76
2022/09/06 13:56:28;;;;;;;3.45;2.67;;;;;;;;;;4938385;29;20043;-78
2022/09/06 13:59:16;;;;;;;4.75;3.22;;;;;;;;;;4944023;29;20477;-77
2022/09/06 14:02:08;;;;;;;4.13;3.03;;;;;;;;;;4944625;29;20048;-76
2022/09/06 14:04:53;;;;;;;5.38;3.20;;;;;;;;;;4943691;29;20672;-78
2022/09/06 14:07:39;;;;;;;3.83;3.03;;;;;;;;;;4940248;29;20048;-76
2022/09/06 14:10:24;;;;;;;5.32;3.05;;;;;;;;;;4937499;29;20048;-78
2022/09/06 14:13:10;;;;;;;6.00;3.00;;;;;;;;;;4936123;29;20055;-77
2022/09/06 14:15:56;;;;;;;6.22;3.08;;;;;;;;;;4940413;29;20047;-77
2022/09/06 14:18:41;;;;;;;7.93;3.15;;;;;;;;;;4937967;29;20397;-77
2022/09/06 14:21:28;;;;;;;4.25;3.42;;;;;;;;;;4937952;29;20052;-78
2022/09/06 14:24:16;;;;;;;4.75;3.33;;;;;;;;;;4937644;29;20060;-77
2022/09/06 14:27:01;;;;;;;4.00;3.17;;;;;;;;;;4929017;29;20051;-77
2022/09/06 14:29:48;;;;;;;3.85;2.70;;;;;;;;;;4943815;29;20048;-76
2022/09/06 14:32:34;;;;;;;3.45;3.05;;;;;;;;;;4943979;29;20052;-75
2022/09/06 14:35:20;;;;;;;5.57;3.30;;;;;;;;;;4937573;29;20048;-75
2022/09/06 14:38:05;;;;;;;3.63;2.92;;;;;;;;;;4944245;29;20051;-77
2022/09/06 14:40:51;;;;;;;5.93;3.35;;;;;;;;;;4937443;29;20517;-77
2022/09/06 14:43:37;;;;;;;5.00;2.90;;;;;;;;;;4936625;29;20055;-76
2022/09/06 14:46:26;;;;;;;4.47;3.10;;;;;;;;;;4937060;29;20047;-76
2022/09/06 14:49:12;;;;;;;6.00;3.17;;;;;;;;;;4943645;29;20051;-77
2022/09/06 14:51:57;;;;;;;5.55;3.38;;;;;;;;;;4937421;29;20052;-76
2022/09/06 14:54:43;;;;;;;9.02;3.22;;;;;;;;;;4943064;29;20047;-78
2022/09/06 14:57:28;;;;;;;4.10;3.00;;;;;;;;;;4937250;29;20052;-76
2022/09/06 15:00:15;;;;;;;4.30;3.00;;;;;;;;;;4937742;29;20051;-77
2022/09/06 15:03:01;;;;;;;4.82;3.90;;;;;;;;;;4936205;29;20047;-77
2022/09/06 15:05:46;;;;;;;5.72;4.15;;;;;;;;;;4943766;29;20051;-77
2022/09/06 15:08:32;;;;;;;5.10;3.53;;;;;;;;;;4938281;29;20047;-78
2022/09/06 15:11:33;;;;;;;5.22;3.42;;;;;;;;;;4943342;29;20406;-79
2022/09/06 15:14:23;;;;;;;5.82;3.05;;;;;;;;;;4943051;29;20048;-78
2022/09/06 15:17:09;;;;;;;3.83;3.10;;;;;;;;;;4935876;29;20052;-80
2022/09/06 15:19:55;;;;;;;3.75;3.35;;;;;;;;;;4935671;29;20039;-77
2022/09/06 15:22:40;;;;;;;4.88;3.42;;;;;;;;;;4941555;29;20621;-79
2022/09/06 15:25:25;;;;;;;4.15;3.17;;;;;;;;;;4937085;29;20043;-77
2022/09/06 15:28:14;;;;;;;3.80;3.15;;;;;;;;;;4936779;29;20051;-78
2022/09/06 15:30:59;;;;;;;7.00;3.58;;;;;;;;;;4943069;29;20051;-77
2022/09/06 15:33:47;;;;;;;8.32;3.53;;;;;;;;;;4945624;29;20044;-78
2022/09/06 15:36:35;;;;;;;5.78;2.97;;;;;;;;;;4936750;29;20044;-77
2022/09/06 15:39:20;;;;;;;4.53;3.03;;;;;;;;;;4936517;29;20056;-77
2022/09/06 15:42:06;;;;;;;4.70;3.50;;;;;;;;;;4936761;29;20040;-78
2022/09/06 15:44:51;;;;;;;4.63;3.67;;;;;;;;;;4936450;29;20063;-77
2022/09/06 15:47:38;;;;;;;5.25;3.78;;;;;;;;;;4936804;29;20040;-79
2022/09/06 15:50:23;;;;;;;4.38;3.20;;;;;;;;;;4942923;29;20036;-77
2022/09/06 15:53:09;;;;;;;3.92;3.33;;;;;;;;;;4942231;29;20048;-77
2022/09/06 15:55:59;;;;;;;4.75;3.00;;;;;;;;;;4942795;29;20048;-77
2022/09/06 15:58:45;;;;;;;5.97;3.70;;;;;;;;;;4935771;29;20039;-77
2022/09/06 16:01:33;;;;;;;4.65;3.50;;;;;;;;;;4928927;29;20044;-77
2022/09/06 16:04:18;;;;;;;4.50;3.33;;;;;;;;;;4942552;29;20044;-77
2022/09/06 16:07:05;;;;;;;6.13;4.22;;;;;;;;;;4942145;29;20051;-77
2022/09/06 16:09:50;;;;;;;5.43;4.38;;;;;;;;;;4942760;29;20055;-79
2022/09/06 16:12:56;;;;;;;6.80;4.22;;;;;;;;;;4942119;29;20051;-77
2022/09/06 16:15:54;;;;;;;7.72;3.95;;;;;;;;;;4938915;29;20044;-77
2022/09/06 16:18:46;;;;;;;4.70;3.65;;;;;;;;;;4938509;29;20051;-77
2022/09/06 16:21:33;;;;;;;4.85;2.72;;;;;;;;;;4940011;29;20044;-78
2022/09/06 16:24:22;;;;;;;5.60;3.42;;;;;;;;;;4941691;29;20051;-78
2022/09/06 16:27:07;;;;;;;6.60;3.53;;;;;;;;;;4937825;29;20051;-78
2022/09/06 16:29:53;;;;;;;5.43;3.40;;;;;;;;;;4939146;29;20051;-78
2022/09/06 16:32:39;;;;;;;5.35;3.50;;;;;;;;;;4941899;29;20052;-78
2022/09/06 16:35:27;;;;;;;6.05;3.75;;;;;;;;;;4944809;29;20501;-77
2022/09/06 16:38:12;;;;;;;6.15;4.75;;;;;;;;;;4952220;29;20059;-77
2022/09/06 16:41:06;;;;;;;10.05;6.95;;;;;;;;;;4947056;29;20055;-77
2022/09/06 16:43:54;;;;;;;11.32;7.57;;;;;;;;;;4944853;29;20052;-77
2022/09/06 16:46:45;;;;;;;13.90;10.52;;;;;;;;;;4948344;29;20052;-77
2022/09/06 16:49:39;;;;;;;15.73;11.48;;;;;;;;;;4952618;29;20044;-78
2022/09/06 16:52:25;;;;;;;16.70;10.98;;;;;;;;;;4952308;29;20051;-77
2022/09/06 16:55:10;;;;;;;14.57;10.20;;;;;;;;;;4950838;29;20047;-76